Time;durP1;ratioP1;P1;durP2;ratioP2;P2;SDS_P1;SDS_P2;PMS_P1;PMS_P2;Temp;Humidity;BMP_temperature;BMP_pressure;BME280_temperature;BME280_humidity;BME280_pressure;Samples;Min_cycle;Max_cycle;Signal;HPM_P1;HPM_P2
2022/06/13 00:00:53;;;;;;;7.70;2.80;;;;;;;;;;4974414;28;20588;-56
2022/06/13 00:03:21;;;;;;;8.33;3.00;;;;;;;;;;4974286;28;20205;-56
2022/06/13 00:05:47;;;;;;;7.80;3.10;;;;;;;;;;4974567;28;20281;-56
2022/06/13 00:08:13;;;;;;;5.00;2.60;;;;;;;;;;4974472;28;20615;-56
2022/06/13 00:10:39;;;;;;;7.67;3.27;;;;;;;;;;4973769;28;20237;-56
2022/06/13 00:13:05;;;;;;;8.07;3.03;;;;;;;;;;4974261;28;20303;-55
2022/06/13 00:15:31;;;;;;;10.60;3.03;;;;;;;;;;4974428;28;20202;-55
2022/06/13 00:17:57;;;;;;;9.00;3.40;;;;;;;;;;4974378;28;20210;-56
2022/06/13 00:20:24;;;;;;;7.50;3.40;;;;;;;;;;4974079;28;20233;-56
2022/06/13 00:22:50;;;;;;;5.33;2.80;;;;;;;;;;4974391;28;20230;-56
2022/06/13 00:25:16;;;;;;;7.40;3.33;;;;;;;;;;4974160;28;20208;-55
2022/06/13 00:27:42;;;;;;;8.23;3.20;;;;;;;;;;4974289;28;20722;-55
2022/06/13 00:30:09;;;;;;;7.63;3.90;;;;;;;;;;4974084;28;20237;-55
2022/06/13 00:32:35;;;;;;;7.57;3.20;;;;;;;;;;4974369;28;20207;-55
2022/06/13 00:35:01;;;;;;;6.40;2.97;;;;;;;;;;4974012;28;20251;-55
2022/06/13 00:37:29;;;;;;;6.07;3.20;;;;;;;;;;4974013;28;20669;-56
2022/06/13 00:39:55;;;;;;;8.60;3.30;;;;;;;;;;4973667;28;20231;-56
2022/06/13 00:42:22;;;;;;;6.50;3.13;;;;;;;;;;4973987;28;20203;-56
2022/06/13 00:45:05;;;;;;;8.80;3.37;;;;;;;;;;4973753;28;20593;-56
2022/06/13 00:47:31;;;;;;;6.53;3.23;;;;;;;;;;4973685;28;20205;-55
2022/06/13 00:49:58;;;;;;;8.37;3.53;;;;;;;;;;4973453;28;20573;-55
2022/06/13 00:52:26;;;;;;;4.50;2.87;;;;;;;;;;4973808;28;20199;-56
2022/06/13 00:54:54;;;;;;;8.70;2.93;;;;;;;;;;4973610;28;20254;-55
2022/06/13 00:57:22;;;;;;;7.67;3.30;;;;;;;;;;4973750;28;20203;-56
2022/06/13 00:59:50;;;;;;;9.67;3.40;;;;;;;;;;4973546;28;20239;-57
2022/06/13 01:02:16;;;;;;;6.37;3.43;;;;;;;;;;4973552;28;20195;-56
2022/06/13 01:04:42;;;;;;;7.10;2.90;;;;;;;;;;4973676;28;20282;-54
2022/06/13 01:07:09;;;;;;;5.60;3.00;;;;;;;;;;4973446;28;20269;-55
2022/06/13 01:12:21;;;;;;;9.23;3.87;;;;;;;;;;4973490;28;20202;-55
2022/06/13 01:14:59;;;;;;;6.53;2.93;;;;;;;;;;4973253;28;20213;-59
2022/06/13 01:17:33;;;;;;;7.77;3.20;;;;;;;;;;4973261;28;20684;-55
2022/06/13 01:20:06;;;;;;;8.27;4.00;;;;;;;;;;4973082;28;20227;-56
2022/06/13 01:22:47;;;;;;;7.37;3.33;;;;;;;;;;4972975;28;20214;-56
2022/06/13 01:25:24;;;;;;;8.85;3.85;;;;;;;;;;4968686;28;20415;-56
2022/06/13 01:28:04;;;;;;;8.13;3.40;;;;;;;;;;4973043;28;20202;-57
2022/06/13 01:30:45;;;;;;;12.10;3.53;;;;;;;;;;4973096;28;20234;-56
2022/06/13 01:33:15;;;;;;;7.67;3.07;;;;;;;;;;4973034;28;20211;-56
2022/06/13 01:35:46;;;;;;;6.77;3.30;;;;;;;;;;4973031;28;20203;-55
2022/06/13 01:38:19;;;;;;;8.40;3.80;;;;;;;;;;4973219;28;20214;-55
2022/06/13 01:40:51;;;;;;;6.27;3.60;;;;;;;;;;4973223;28;20214;-55
2022/06/13 01:43:22;;;;;;;7.87;3.20;;;;;;;;;;4973290;28;20199;-56
2022/06/13 01:45:56;;;;;;;8.83;4.03;;;;;;;;;;4973063;28;20203;-55
2022/06/13 01:48:29;;;;;;;7.93;3.60;;;;;;;;;;4973140;28;20242;-55
2022/06/13 01:50:59;;;;;;;5.87;3.30;;;;;;;;;;4972783;28;20693;-55
2022/06/13 01:53:28;;;;;;;6.90;3.60;;;;;;;;;;4972788;28;20619;-56
2022/06/13 01:55:59;;;;;;;8.67;3.93;;;;;;;;;;4972704;28;20254;-55
2022/06/13 01:58:28;;;;;;;7.90;3.90;;;;;;;;;;4971871;28;20551;-55
2022/06/13 02:01:00;;;;;;;7.17;3.87;;;;;;;;;;4972606;28;20198;-55
2022/06/13 02:03:29;;;;;;;8.73;3.80;;;;;;;;;;4972894;28;20210;-55
2022/06/13 02:05:57;;;;;;;8.73;3.57;;;;;;;;;;4972636;28;20211;-56
2022/06/13 02:08:27;;;;;;;6.53;3.30;;;;;;;;;;4972626;28;20203;-55
2022/06/13 02:10:54;;;;;;;8.47;4.17;;;;;;;;;;4972408;28;20199;-55
2022/06/13 02:13:24;;;;;;;8.50;3.70;;;;;;;;;;4972928;28;20195;-56
2022/06/13 02:15:53;;;;;;;9.13;3.93;;;;;;;;;;4972752;28;20203;-56
2022/06/13 02:18:21;;;;;;;7.23;3.90;;;;;;;;;;4972512;28;20202;-55
2022/06/13 02:20:48;;;;;;;9.50;4.00;;;;;;;;;;4972485;28;20226;-56
2022/06/13 02:23:16;;;;;;;6.77;4.50;;;;;;;;;;4972671;28;20206;-55
2022/06/13 02:25:45;;;;;;;8.20;4.10;;;;;;;;;;4972357;28;20587;-56
2022/06/13 02:28:13;;;;;;;11.13;4.50;;;;;;;;;;4972316;28;20286;-55
2022/06/13 02:30:43;;;;;;;7.37;4.50;;;;;;;;;;4972425;28;20245;-56
2022/06/13 02:33:11;;;;;;;7.53;4.00;;;;;;;;;;4973112;28;20250;-56
2022/06/13 02:35:41;;;;;;;6.30;4.00;;;;;;;;;;4976155;28;20663;-56
2022/06/13 02:38:09;;;;;;;8.20;4.40;;;;;;;;;;4976156;28;20575;-56
2022/06/13 02:40:37;;;;;;;10.50;4.50;;;;;;;;;;4976156;28;20321;-56
2022/06/13 02:43:06;;;;;;;7.40;4.17;;;;;;;;;;4976270;28;20203;-56
2022/06/13 02:45:35;;;;;;;8.13;3.70;;;;;;;;;;4976163;28;20349;-56
2022/06/13 02:48:04;;;;;;;7.83;4.37;;;;;;;;;;4975994;28;20676;-55
2022/06/13 02:50:31;;;;;;;9.77;4.87;;;;;;;;;;4976129;28;20402;-55
2022/06/13 02:53:02;;;;;;;7.13;4.07;;;;;;;;;;4976049;28;20199;-55
2022/06/13 02:55:32;;;;;;;8.37;4.10;;;;;;;;;;4976042;28;20215;-55
2022/06/13 02:58:02;;;;;;;6.57;3.70;;;;;;;;;;4975777;28;20210;-55
2022/06/13 03:00:38;;;;;;;8.20;4.17;;;;;;;;;;4975639;28;20868;-55
2022/06/13 03:03:11;;;;;;;10.53;4.27;;;;;;;;;;4975539;28;20712;-55
2022/06/13 03:05:46;;;;;;;7.37;4.13;;;;;;;;;;4975576;28;20203;-55
2022/06/13 03:08:19;;;;;;;7.80;3.83;;;;;;;;;;4975141;28;20194;-55
2022/06/13 03:10:49;;;;;;;12.27;4.23;;;;;;;;;;4975543;28;20693;-55
2022/06/13 03:13:18;;;;;;;8.17;4.67;;;;;;;;;;4975416;28;20286;-56
2022/06/13 03:15:49;;;;;;;8.57;4.07;;;;;;;;;;4975475;28;20203;-56
2022/06/13 03:18:17;;;;;;;7.07;4.73;;;;;;;;;;4975466;28;20207;-56
2022/06/13 03:20:48;;;;;;;10.17;4.60;;;;;;;;;;4974960;28;20725;-56
2022/06/13 03:23:20;;;;;;;5.80;4.10;;;;;;;;;;4975359;28;20199;-56
2022/06/13 03:25:48;;;;;;;6.00;3.53;;;;;;;;;;4975343;28;20245;-55
2022/06/13 03:28:16;;;;;;;8.53;4.00;;;;;;;;;;4975054;28;20207;-55
2022/06/13 03:30:44;;;;;;;8.10;4.60;;;;;;;;;;4975100;28;20265;-55
2022/06/13 03:35:59;;;;;;;9.10;4.43;;;;;;;;;;4975051;28;20213;-55
2022/06/13 03:38:31;;;;;;;10.00;4.70;;;;;;;;;;4975057;28;20238;-56
2022/06/13 03:40:59;;;;;;;7.60;4.87;;;;;;;;;;4974925;28;20206;-55
2022/06/13 03:43:28;;;;;;;9.13;4.63;;;;;;;;;;4975230;28;20205;-56
2022/06/13 03:45:56;;;;;;;11.47;4.90;;;;;;;;;;4973710;28;20218;-56
2022/06/13 03:48:24;;;;;;;8.47;5.50;;;;;;;;;;4974824;28;20249;-56
2022/06/13 03:50:52;;;;;;;8.50;4.63;;;;;;;;;;4974908;28;20290;-56
2022/06/13 03:53:20;;;;;;;9.60;4.93;;;;;;;;;;4974783;28;20568;-55
2022/06/13 03:55:49;;;;;;;10.93;4.77;;;;;;;;;;4974728;28;20246;-56
2022/06/13 03:58:17;;;;;;;12.97;5.33;;;;;;;;;;4974666;28;20211;-56
2022/06/13 04:00:46;;;;;;;11.43;5.60;;;;;;;;;;4974441;28;20219;-55
2022/06/13 04:03:12;;;;;;;11.67;4.83;;;;;;;;;;4974645;28;20203;-56
2022/06/13 04:05:42;;;;;;;7.30;4.40;;;;;;;;;;4974592;28;20203;-56
2022/06/13 04:08:09;;;;;;;8.50;4.40;;;;;;;;;;4974566;28;20207;-56
2022/06/13 04:10:41;;;;;;;10.20;4.93;;;;;;;;;;4974694;28;20195;-56
2022/06/13 04:13:26;;;;;;;10.43;5.37;;;;;;;;;;4974525;28;20198;-56
2022/06/13 04:16:03;;;;;;;9.53;4.80;;;;;;;;;;4974409;28;20289;-55
2022/06/13 04:18:45;;;;;;;8.63;4.77;;;;;;;;;;4974298;28;20203;-56
2022/06/13 04:21:18;;;;;;;11.90;4.80;;;;;;;;;;4974033;28;20232;-55
2022/06/13 04:23:49;;;;;;;9.67;4.53;;;;;;;;;;4974374;28;20421;-55
2022/06/13 04:26:18;;;;;;;9.17;5.13;;;;;;;;;;4974121;28;20227;-55
2022/06/13 04:28:50;;;;;;;16.97;5.83;;;;;;;;;;4974162;28;20257;-55
2022/06/13 04:31:18;;;;;;;8.30;4.73;;;;;;;;;;4974327;28;20215;-55
2022/06/13 04:33:46;;;;;;;10.73;4.97;;;;;;;;;;4973643;28;20244;-55
2022/06/13 04:36:14;;;;;;;10.17;5.20;;;;;;;;;;4973377;28;20202;-56
2022/06/13 04:38:42;;;;;;;8.07;4.60;;;;;;;;;;4974061;28;20644;-56
2022/06/13 04:41:10;;;;;;;12.60;5.17;;;;;;;;;;4973920;28;20249;-55
2022/06/13 04:43:38;;;;;;;9.13;4.90;;;;;;;;;;4973969;28;20203;-56
2022/06/13 04:46:08;;;;;;;9.93;5.10;;;;;;;;;;4973917;28;20199;-55
2022/06/13 04:48:34;;;;;;;9.43;5.40;;;;;;;;;;4974054;28;20203;-55
2022/06/13 04:51:02;;;;;;;11.53;5.60;;;;;;;;;;4973435;28;20233;-56
2022/06/13 04:53:32;;;;;;;10.17;6.07;;;;;;;;;;4973703;28;20231;-55
2022/06/13 04:55:59;;;;;;;12.17;5.73;;;;;;;;;;4973255;28;20661;-55
2022/06/13 04:58:27;;;;;;;11.93;5.37;;;;;;;;;;4973648;28;20207;-55
2022/06/13 05:00:56;;;;;;;8.67;4.83;;;;;;;;;;4973444;28;20234;-56
2022/06/13 05:03:24;;;;;;;10.53;5.40;;;;;;;;;;4973340;28;20254;-55
2022/06/13 05:05:51;;;;;;;8.63;5.07;;;;;;;;;;4973473;28;20203;-56
2022/06/13 05:08:22;;;;;;;14.27;5.70;;;;;;;;;;4973183;28;20653;-54
2022/06/13 05:10:50;;;;;;;8.67;4.53;;;;;;;;;;4973293;28;20526;-56
2022/06/13 05:13:17;;;;;;;7.70;4.23;;;;;;;;;;4973452;28;20246;-55
2022/06/13 05:15:44;;;;;;;14.10;5.03;;;;;;;;;;4973132;28;20205;-55
2022/06/13 05:18:22;;;;;;;11.23;5.00;;;;;;;;;;4972979;28;20203;-55
2022/06/13 05:20:56;;;;;;;9.87;5.20;;;;;;;;;;4972370;28;20237;-55
2022/06/13 05:23:35;;;;;;;10.93;5.17;;;;;;;;;;4972757;28;20213;-54
2022/06/13 05:26:02;;;;;;;13.97;5.83;;;;;;;;;;4973404;28;20222;-55
2022/06/13 05:28:29;;;;;;;12.83;4.80;;;;;;;;;;4972749;28;20227;-55
2022/06/13 05:30:57;;;;;;;9.97;5.40;;;;;;;;;;4972821;28;20195;-55
2022/06/13 05:33:25;;;;;;;12.07;5.70;;;;;;;;;;4972678;28;20261;-55
2022/06/13 05:35:56;;;;;;;10.13;5.20;;;;;;;;;;4972966;28;20277;-55
2022/06/13 05:38:26;;;;;;;8.03;4.77;;;;;;;;;;4970930;28;20262;-55
2022/06/13 05:40:53;;;;;;;12.57;5.70;;;;;;;;;;4972195;28;20242;-55
2022/06/13 05:43:19;;;;;;;12.67;4.97;;;;;;;;;;4972231;28;20253;-55
2022/06/13 05:45:45;;;;;;;11.53;4.67;;;;;;;;;;4972478;28;20246;-55
2022/06/13 05:48:14;;;;;;;13.73;5.20;;;;;;;;;;4972284;28;20206;-55
2022/06/13 05:50:40;;;;;;;11.00;4.70;;;;;;;;;;4972664;28;20214;-55
2022/06/13 05:53:09;;;;;;;8.47;4.37;;;;;;;;;;4972534;28;20201;-55
2022/06/13 05:55:35;;;;;;;10.53;4.87;;;;;;;;;;4972394;28;20214;-55
2022/06/13 05:58:01;;;;;;;9.07;4.63;;;;;;;;;;4972566;28;20297;-55
2022/06/13 06:00:31;;;;;;;10.13;4.60;;;;;;;;;;4972521;28;20223;-55
2022/06/13 06:02:57;;;;;;;9.70;4.40;;;;;;;;;;4972088;28;20677;-55
2022/06/13 06:05:23;;;;;;;9.30;4.30;;;;;;;;;;4972251;28;20199;-55
2022/06/13 06:07:49;;;;;;;7.47;4.17;;;;;;;;;;4972356;28;20250;-55
2022/06/13 06:10:19;;;;;;;10.47;4.33;;;;;;;;;;4976155;28;20203;-55
2022/06/13 06:12:45;;;;;;;9.57;4.13;;;;;;;;;;4976623;28;20556;-55
2022/06/13 06:15:11;;;;;;;9.67;4.00;;;;;;;;;;4976431;28;20205;-55
2022/06/13 06:17:37;;;;;;;11.77;3.77;;;;;;;;;;4976459;28;20210;-55
2022/06/13 06:20:04;;;;;;;9.40;4.37;;;;;;;;;;4976793;28;20241;-55
2022/06/13 06:22:30;;;;;;;11.43;4.13;;;;;;;;;;4976232;28;20206;-57
2022/06/13 06:24:56;;;;;;;6.30;3.50;;;;;;;;;;4976614;28;20262;-55
2022/06/13 06:27:23;;;;;;;8.10;3.70;;;;;;;;;;4975765;28;20641;-56
2022/06/13 06:29:49;;;;;;;8.53;3.97;;;;;;;;;;4975852;28;20698;-56
2022/06/13 06:32:15;;;;;;;8.30;3.93;;;;;;;;;;4976265;28;20203;-57
2022/06/13 06:34:41;;;;;;;10.10;3.33;;;;;;;;;;4976171;28;20199;-56
2022/06/13 06:37:07;;;;;;;4.80;3.20;;;;;;;;;;4976213;28;20203;-56
2022/06/13 06:39:33;;;;;;;5.70;2.90;;;;;;;;;;4975985;28;20711;-56
2022/06/13 06:41:59;;;;;;;11.03;3.80;;;;;;;;;;4976092;28;20204;-55
2022/06/13 06:44:27;;;;;;;6.60;3.37;;;;;;;;;;4976055;28;20208;-55
2022/06/13 06:46:53;;;;;;;7.70;3.50;;;;;;;;;;4975904;28;20208;-55
2022/06/13 06:49:19;;;;;;;7.67;3.40;;;;;;;;;;4975916;28;20203;-55
2022/06/13 06:51:46;;;;;;;10.73;3.80;;;;;;;;;;4975849;28;20205;-56
2022/06/13 06:59:55;;;;;;;6.20;3.40;;;;;;;;;;4976000;28;20236;-55
2022/06/13 07:02:23;;;;;;;11.10;4.03;;;;;;;;;;4975920;28;20207;-57
2022/06/13 07:04:50;;;;;;;11.47;3.93;;;;;;;;;;4972769;28;20283;-56
2022/06/13 07:07:16;;;;;;;9.80;3.60;;;;;;;;;;4975438;28;20624;-56
2022/06/13 07:09:42;;;;;;;8.43;3.80;;;;;;;;;;4975614;28;20681;-56
2022/06/13 07:12:08;;;;;;;7.77;4.00;;;;;;;;;;4975493;28;20211;-56
2022/06/13 07:14:35;;;;;;;9.13;3.70;;;;;;;;;;4975034;28;20206;-56
2022/06/13 07:17:04;;;;;;;8.50;3.90;;;;;;;;;;4975270;28;20579;-56
2022/06/13 07:19:30;;;;;;;7.80;3.93;;;;;;;;;;4974716;28;20307;-56
2022/06/13 07:21:56;;;;;;;7.93;3.47;;;;;;;;;;4975181;28;20209;-57
2022/06/13 07:24:22;;;;;;;11.20;3.40;;;;;;;;;;4975117;28;20204;-56
2022/06/13 07:26:49;;;;;;;7.07;3.70;;;;;;;;;;4975086;28;20703;-56
2022/06/13 07:29:18;;;;;;;9.93;4.00;;;;;;;;;;4975080;28;20277;-56
2022/06/13 07:31:45;;;;;;;6.30;3.13;;;;;;;;;;4975452;28;20256;-56
2022/06/13 07:34:14;;;;;;;8.80;3.47;;;;;;;;;;4975052;28;20250;-56
2022/06/13 07:36:40;;;;;;;9.93;4.00;;;;;;;;;;4974961;28;20208;-56
2022/06/13 07:39:06;;;;;;;7.63;3.40;;;;;;;;;;4974962;28;20611;-56
2022/06/13 07:41:32;;;;;;;7.57;3.60;;;;;;;;;;4974727;28;20200;-56
2022/06/13 07:43:58;;;;;;;6.43;3.00;;;;;;;;;;4974973;28;20254;-56
2022/06/13 07:46:27;;;;;;;8.10;3.67;;;;;;;;;;4974780;28;20213;-56
2022/06/13 07:48:53;;;;;;;7.73;3.63;;;;;;;;;;4972830;28;20888;-56
2022/06/13 07:51:21;;;;;;;8.93;3.50;;;;;;;;;;4974788;28;20209;-56
2022/06/13 07:53:47;;;;;;;13.80;3.37;;;;;;;;;;4974695;28;20545;-56
2022/06/13 07:56:14;;;;;;;7.87;3.37;;;;;;;;;;4974657;28;20993;-57
2022/06/13 07:58:41;;;;;;;7.83;3.40;;;;;;;;;;4974479;28;20812;-57
2022/06/13 08:01:07;;;;;;;8.33;2.90;;;;;;;;;;4974335;28;20245;-54
2022/06/13 08:03:34;;;;;;;7.03;2.73;;;;;;;;;;4974467;28;20206;-56
2022/06/13 08:06:00;;;;;;;9.93;2.80;;;;;;;;;;4974686;28;20214;-55
2022/06/13 08:08:28;;;;;;;6.43;2.77;;;;;;;;;;4974549;28;20225;-56
2022/06/13 08:10:55;;;;;;;10.63;3.27;;;;;;;;;;4974669;28;20288;-56
2022/06/13 08:13:23;;;;;;;6.03;2.87;;;;;;;;;;4974446;28;20273;-56
2022/06/13 08:15:50;;;;;;;9.43;3.10;;;;;;;;;;4974458;28;20210;-55
2022/06/13 08:18:16;;;;;;;5.83;2.20;;;;;;;;;;4974180;28;20704;-55
2022/06/13 08:20:42;;;;;;;7.93;3.10;;;;;;;;;;4974183;28;20321;-56
2022/06/13 08:23:10;;;;;;;7.13;2.70;;;;;;;;;;4974227;28;20218;-56
2022/06/13 08:25:38;;;;;;;6.40;2.53;;;;;;;;;;4974179;28;20321;-55
2022/06/13 08:28:05;;;;;;;8.17;3.43;;;;;;;;;;4974124;28;20281;-56
2022/06/13 08:30:40;;;;;;;6.40;2.60;;;;;;;;;;4973554;28;20242;-56
2022/06/13 08:33:06;;;;;;;7.70;2.60;;;;;;;;;;4973735;28;20305;-56
2022/06/13 08:35:32;;;;;;;5.33;2.10;;;;;;;;;;4974020;28;20209;-56
2022/06/13 08:37:58;;;;;;;5.50;2.37;;;;;;;;;;4973910;28;20245;-56
2022/06/13 08:40:26;;;;;;;6.67;2.47;;;;;;;;;;4973718;28;20235;-55
2022/06/13 08:42:57;;;;;;;5.10;2.20;;;;;;;;;;4974067;28;20230;-55
2022/06/13 08:45:25;;;;;;;5.27;2.50;;;;;;;;;;4974056;28;20218;-56
2022/06/13 08:47:55;;;;;;;5.37;2.37;;;;;;;;;;4973634;28;20210;-55
2022/06/13 08:50:30;;;;;;;7.93;2.60;;;;;;;;;;4973658;28;20574;-55
2022/06/13 08:52:57;;;;;;;6.43;2.23;;;;;;;;;;4973828;28;20265;-56
2022/06/13 08:55:28;;;;;;;4.27;2.20;;;;;;;;;;4973748;28;20199;-55
2022/06/13 08:58:01;;;;;;;3.33;1.77;;;;;;;;;;4974005;28;20203;-55
2022/06/13 09:00:28;;;;;;;5.80;2.10;;;;;;;;;;4973693;28;20752;-55
2022/06/13 09:02:56;;;;;;;4.50;2.20;;;;;;;;;;4973202;28;20205;-56
2022/06/13 09:05:24;;;;;;;6.47;1.80;;;;;;;;;;4973217;28;20207;-56
2022/06/13 09:07:53;;;;;;;4.40;1.87;;;;;;;;;;4973652;28;20199;-56
2022/06/13 09:10:23;;;;;;;4.37;1.83;;;;;;;;;;4973474;28;20289;-56
2022/06/13 09:12:55;;;;;;;4.60;2.33;;;;;;;;;;4973629;28;20290;-55
2022/06/13 09:15:24;;;;;;;5.07;1.70;;;;;;;;;;4973307;28;20226;-55
2022/06/13 09:17:53;;;;;;;3.60;1.80;;;;;;;;;;4973032;28;20741;-56
2022/06/13 09:20:21;;;;;;;3.57;1.77;;;;;;;;;;4973307;28;20228;-56
2022/06/13 09:22:51;;;;;;;6.53;1.67;;;;;;;;;;4973296;28;20202;-55
2022/06/13 09:25:22;;;;;;;2.20;1.47;;;;;;;;;;4972973;28;20577;-56
2022/06/13 09:27:54;;;;;;;2.57;1.20;;;;;;;;;;4973090;28;20199;-55
2022/06/13 09:30:23;;;;;;;2.77;1.27;;;;;;;;;;4972894;28;20235;-55
2022/06/13 09:32:53;;;;;;;1.63;1.20;;;;;;;;;;4972786;28;20207;-55
2022/06/13 09:35:20;;;;;;;1.40;1.10;;;;;;;;;;4972995;28;20210;-53
2022/06/13 09:37:53;;;;;;;2.00;1.10;;;;;;;;;;4972801;28;20202;-52
2022/06/13 09:40:23;;;;;;;3.23;1.50;;;;;;;;;;4972617;28;20226;-55
2022/06/13 09:42:54;;;;;;;2.33;1.50;;;;;;;;;;4972867;28;20213;-53
2022/06/13 09:45:32;;;;;;;2.30;1.40;;;;;;;;;;4972845;28;20236;-54
2022/06/13 09:48:03;;;;;;;1.33;1.23;;;;;;;;;;4972319;28;20663;-53
2022/06/13 09:50:32;;;;;;;3.27;1.67;;;;;;;;;;4972613;28;20292;-54
2022/06/13 09:53:02;;;;;;;2.83;1.43;;;;;;;;;;4972621;28;20209;-54
2022/06/13 09:55:31;;;;;;;2.10;1.40;;;;;;;;;;4972788;28;20201;-55
2022/06/13 09:58:04;;;;;;;1.80;1.20;;;;;;;;;;4972593;28;20209;-53
2022/06/13 10:00:37;;;;;;;3.70;1.60;;;;;;;;;;4972782;28;20241;-53
2022/06/13 10:03:08;;;;;;;3.60;1.50;;;;;;;;;;4972363;28;20658;-53
2022/06/13 10:05:36;;;;;;;3.63;1.50;;;;;;;;;;4972587;28;20302;-53
2022/06/13 10:08:09;;;;;;;3.90;1.97;;;;;;;;;;4972561;28;20198;-55
2022/06/13 10:10:40;;;;;;;4.37;1.60;;;;;;;;;;4972528;28;20210;-56
2022/06/13 10:13:16;;;;;;;4.17;1.60;;;;;;;;;;4972648;28;20239;-55
2022/06/13 10:15:45;;;;;;;3.30;1.70;;;;;;;;;;4972446;28;20205;-55
2022/06/13 10:18:22;;;;;;;3.63;1.67;;;;;;;;;;4972168;28;20207;-55
2022/06/13 10:20:49;;;;;;;3.37;1.87;;;;;;;;;;4972228;28;20237;-55
2022/06/13 10:23:19;;;;;;;3.43;1.90;;;;;;;;;;4972478;28;20202;-55
2022/06/13 10:25:52;;;;;;;4.90;2.00;;;;;;;;;;4972371;28;20224;-55
2022/06/13 10:28:25;;;;;;;4.00;1.80;;;;;;;;;;4972577;28;20203;-55
2022/06/13 10:30:54;;;;;;;2.97;1.57;;;;;;;;;;4972635;28;20679;-55
2022/06/13 10:33:26;;;;;;;4.73;1.73;;;;;;;;;;4972568;28;20205;-55
2022/06/13 10:35:55;;;;;;;4.70;1.97;;;;;;;;;;4972404;28;20213;-52
2022/06/13 10:38:27;;;;;;;6.40;1.93;;;;;;;;;;4972305;28;20259;-55
2022/06/13 10:40:53;;;;;;;4.43;1.77;;;;;;;;;;4972223;28;20620;-54
2022/06/13 10:43:37;;;;;;;4.50;1.57;;;;;;;;;;4971895;28;20224;-55
2022/06/13 10:46:03;;;;;;;8.13;1.70;;;;;;;;;;4961846;28;20203;-55
2022/06/13 10:48:34;;;;;;;5.43;1.57;;;;;;;;;;4971841;28;20286;-55
2022/06/13 10:51:02;;;;;;;1.47;1.20;;;;;;;;;;4972055;28;20670;-53
2022/06/13 10:53:31;;;;;;;3.83;1.10;;;;;;;;;;4971978;28;20270;-52
2022/06/13 10:55:58;;;;;;;2.47;1.03;;;;;;;;;;4975112;28;20679;-53
2022/06/13 10:58:26;;;;;;;2.03;1.20;;;;;;;;;;4975526;28;20285;-53
2022/06/13 11:01:03;;;;;;;2.07;0.97;;;;;;;;;;4975320;28;20332;-54
2022/06/13 11:03:31;;;;;;;1.87;1.10;;;;;;;;;;4975306;28;20253;-54
2022/06/13 11:05:59;;;;;;;4.37;1.03;;;;;;;;;;4975560;28;20219;-54
2022/06/13 11:08:27;;;;;;;1.63;1.13;;;;;;;;;;4975401;28;20210;-54
2022/06/13 11:10:54;;;;;;;3.93;1.00;;;;;;;;;;4975151;28;20713;-54
2022/06/13 11:13:24;;;;;;;2.97;1.13;;;;;;;;;;4975371;28;20578;-55
2022/06/13 11:24:34;;;;;;;1.40;1.17;;;;;;;;;;4934318;29;20236;-54
2022/06/13 11:29:47;;;;;;;3.17;1.00;;;;;;;;;;4975180;28;20292;-54
2022/06/13 11:32:20;;;;;;;5.57;1.00;;;;;;;;;;4974770;28;20294;-54
2022/06/13 11:34:47;;;;;;;2.90;1.10;;;;;;;;;;4974342;28;20256;-54
2022/06/13 11:37:18;;;;;;;2.23;0.80;;;;;;;;;;4974525;28;20678;-54
2022/06/13 11:39:46;;;;;;;2.23;1.10;;;;;;;;;;4975008;28;20226;-54
2022/06/13 11:42:16;;;;;;;1.63;0.93;;;;;;;;;;4975204;28;20203;-54
2022/06/13 11:44:44;;;;;;;3.87;1.37;;;;;;;;;;4974853;28;20650;-55
2022/06/13 11:47:10;;;;;;;1.57;1.17;;;;;;;;;;4974824;28;20211;-55
2022/06/13 11:49:38;;;;;;;1.43;1.00;;;;;;;;;;4975045;28;20210;-54
2022/06/13 11:52:07;;;;;;;3.17;1.00;;;;;;;;;;4974924;28;20209;-54
2022/06/13 11:54:35;;;;;;;1.20;0.57;;;;;;;;;;4974563;28;20207;-54
2022/06/13 11:57:18;;;;;;;0.93;0.63;;;;;;;;;;4974912;28;20199;-55
2022/06/13 11:59:49;;;;;;;3.10;0.90;;;;;;;;;;4974751;28;20732;-55
2022/06/13 12:02:19;;;;;;;1.47;1.00;;;;;;;;;;4974542;28;20232;-55
2022/06/13 12:04:46;;;;;;;2.50;0.90;;;;;;;;;;4974420;28;20219;-55
2022/06/13 12:07:21;;;;;;;2.73;0.80;;;;;;;;;;4973603;28;20203;-55
2022/06/13 12:09:52;;;;;;;0.70;0.70;;;;;;;;;;4974593;28;20206;-54
2022/06/13 12:12:18;;;;;;;1.47;0.97;;;;;;;;;;4974498;28;20206;-54
2022/06/13 12:14:44;;;;;;;5.40;1.10;;;;;;;;;;4974359;28;20285;-54
2022/06/13 12:17:15;;;;;;;2.13;0.90;;;;;;;;;;4974332;28;20305;-54
2022/06/13 12:19:44;;;;;;;2.33;1.07;;;;;;;;;;4974347;28;20628;-54
2022/06/13 12:22:14;;;;;;;2.33;1.10;;;;;;;;;;4974324;28;20195;-54
2022/06/13 12:24:47;;;;;;;3.07;1.17;;;;;;;;;;4974151;28;20207;-65
2022/06/13 12:27:17;;;;;;;3.03;1.17;;;;;;;;;;4974273;28;20265;-66
2022/06/13 12:30:01;;;;;;;3.17;1.20;;;;;;;;;;4973932;28;20338;-54
2022/06/13 12:32:29;;;;;;;1.57;0.83;;;;;;;;;;4974232;28;20721;-59
2022/06/13 12:35:01;;;;;;;2.33;1.07;;;;;;;;;;4974115;28;20616;-55
2022/06/13 12:37:34;;;;;;;7.27;1.03;;;;;;;;;;4974174;28;20203;-55
2022/06/13 12:40:08;;;;;;;1.90;1.07;;;;;;;;;;4973689;28;20619;-55
2022/06/13 12:42:46;;;;;;;3.07;1.00;;;;;;;;;;4973988;28;20210;-55
2022/06/13 12:45:38;;;;;;;2.37;1.23;;;;;;;;;;4973856;28;20253;-55
2022/06/13 12:48:12;;;;;;;5.40;1.10;;;;;;;;;;4973515;28;20279;-55
2022/06/13 12:50:44;;;;;;;1.67;1.00;;;;;;;;;;4973606;28;20199;-55
2022/06/13 12:53:23;;;;;;;2.37;1.20;;;;;;;;;;4973675;28;20210;-54
2022/06/13 12:55:54;;;;;;;2.50;1.13;;;;;;;;;;4973572;28;20203;-55
2022/06/13 12:58:31;;;;;;;5.47;1.10;;;;;;;;;;4969002;28;20269;-56
2022/06/13 13:01:02;;;;;;;4.47;1.57;;;;;;;;;;4973136;28;20226;-55
2022/06/13 13:03:43;;;;;;;4.97;1.33;;;;;;;;;;4973317;28;20281;-56
2022/06/13 13:06:12;;;;;;;6.10;1.10;;;;;;;;;;4973582;28;20206;-56
2022/06/13 13:08:44;;;;;;;4.03;1.10;;;;;;;;;;4973455;28;20199;-57
2022/06/13 13:11:20;;;;;;;2.03;0.90;;;;;;;;;;4973686;28;20277;-57
2022/06/13 13:13:49;;;;;;;4.23;1.07;;;;;;;;;;4973374;28;20241;-57
2022/06/13 13:16:18;;;;;;;1.83;1.10;;;;;;;;;;4973506;28;20246;-56
2022/06/13 13:18:49;;;;;;;1.90;0.90;;;;;;;;;;4972601;28;20256;-56
2022/06/13 13:21:19;;;;;;;2.03;0.70;;;;;;;;;;4972958;28;20322;-57
2022/06/13 13:23:49;;;;;;;2.73;0.70;;;;;;;;;;4972815;28;20601;-56
2022/06/13 13:26:22;;;;;;;2.73;1.20;;;;;;;;;;4973194;28;20214;-56
2022/06/13 13:28:54;;;;;;;1.17;0.90;;;;;;;;;;4971182;28;20238;-55
2022/06/13 13:31:24;;;;;;;0.80;0.63;;;;;;;;;;4973135;28;20199;-55
2022/06/13 13:33:56;;;;;;;1.30;0.70;;;;;;;;;;4972603;28;20548;-56
2022/06/13 13:36:24;;;;;;;2.63;0.93;;;;;;;;;;4972816;28;20202;-56
2022/06/13 13:38:52;;;;;;;2.30;1.10;;;;;;;;;;4972823;28;20213;-56
2022/06/13 13:41:22;;;;;;;1.23;0.90;;;;;;;;;;4972799;28;20282;-55
2022/06/13 13:43:51;;;;;;;4.20;1.00;;;;;;;;;;4972641;28;20207;-55
2022/06/13 13:46:19;;;;;;;2.73;0.90;;;;;;;;;;4972908;28;20617;-55
2022/06/13 13:48:48;;;;;;;2.27;1.20;;;;;;;;;;4972443;28;20199;-55
2022/06/13 13:51:18;;;;;;;3.63;1.00;;;;;;;;;;4970895;28;20764;-55
2022/06/13 13:53:47;;;;;;;4.80;1.20;;;;;;;;;;4971066;28;20313;-55
2022/06/13 13:56:16;;;;;;;4.27;1.13;;;;;;;;;;4972560;28;20191;-55
2022/06/13 13:58:45;;;;;;;1.93;1.10;;;;;;;;;;4972439;28;20191;-55
2022/06/13 14:01:23;;;;;;;5.53;1.57;;;;;;;;;;4972499;28;20318;-55
2022/06/13 14:03:59;;;;;;;2.70;1.43;;;;;;;;;;4972634;28;20210;-55
2022/06/13 14:06:27;;;;;;;2.17;1.23;;;;;;;;;;4972558;28;20212;-55
2022/06/13 14:08:55;;;;;;;2.17;0.93;;;;;;;;;;4970488;28;20232;-54
2022/06/13 14:11:21;;;;;;;4.80;1.50;;;;;;;;;;4972623;28;20301;-54
2022/06/13 14:13:48;;;;;;;2.17;1.10;;;;;;;;;;4972652;28;20655;-55
2022/06/13 14:16:33;;;;;;;4.50;1.40;;;;;;;;;;4972615;28;20210;-54
2022/06/13 14:19:12;;;;;;;4.20;1.10;;;;;;;;;;4972585;28;20277;-55
2022/06/13 14:21:55;;;;;;;4.20;1.27;;;;;;;;;;4972257;28;20226;-54
2022/06/13 14:24:22;;;;;;;3.23;1.23;;;;;;;;;;4972457;28;20617;-54
2022/06/13 14:27:02;;;;;;;4.33;1.50;;;;;;;;;;4972279;28;20217;-55
2022/06/13 14:29:32;;;;;;;3.97;1.33;;;;;;;;;;4973423;28;20237;-54
2022/06/13 14:31:59;;;;;;;3.03;1.40;;;;;;;;;;4976208;28;20662;-54
2022/06/13 14:37:24;;;;;;;5.00;1.30;;;;;;;;;;4976352;28;20313;-55
2022/06/13 14:39:56;;;;;;;6.13;2.00;;;;;;;;;;4976129;28;20233;-54
2022/06/13 14:42:30;;;;;;;3.83;1.40;;;;;;;;;;4976164;28;20209;-54
2022/06/13 14:45:02;;;;;;;3.37;1.40;;;;;;;;;;4976144;28;20324;-55
2022/06/13 14:47:36;;;;;;;4.13;1.30;;;;;;;;;;4975777;28;20716;-55
2022/06/13 14:50:03;;;;;;;6.00;1.63;;;;;;;;;;4975955;28;20202;-55
2022/06/13 14:52:29;;;;;;;4.20;1.50;;;;;;;;;;4974069;28;20253;-55
2022/06/13 14:55:22;;;;;;;3.57;1.40;;;;;;;;;;4975948;28;20741;-56
2022/06/13 14:57:49;;;;;;;2.20;1.37;;;;;;;;;;4975734;28;20684;-55
2022/06/13 15:00:19;;;;;;;4.57;1.60;;;;;;;;;;4975849;28;20238;-56
2022/06/13 15:03:06;;;;;;;4.47;1.60;;;;;;;;;;4975676;28;20203;-55
2022/06/13 15:05:43;;;;;;;3.97;1.60;;;;;;;;;;4975619;28;20203;-55
2022/06/13 15:08:13;;;;;;;4.17;1.50;;;;;;;;;;4975799;28;20230;-56
2022/06/13 15:10:44;;;;;;;2.13;1.33;;;;;;;;;;4975595;28;20199;-56
2022/06/13 15:13:10;;;;;;;8.57;1.70;;;;;;;;;;4975530;28;20207;-55
2022/06/13 15:15:38;;;;;;;3.63;1.50;;;;;;;;;;4975641;28;20622;-55
2022/06/13 15:18:06;;;;;;;7.00;1.67;;;;;;;;;;4975394;28;20207;-57
2022/06/13 15:20:33;;;;;;;5.07;1.70;;;;;;;;;;4975371;28;20231;-55